sensor_id;sensor_type;location;lat;lon;timestamp;pressure;altitude;pressure_sealevel;temperature;humidity
76973;BME280;65907;53.640;10.050;2023-09-12T00:01:04;100643.28;;;26.14;51.41
76973;BME280;65907;53.640;10.050;2023-09-12T00:03:33;100661.72;;;26.14;51.51
76973;BME280;65907;53.640;10.050;2023-09-12T00:24:04;100644.28;;;26.13;51.46
76973;BME280;65907;53.640;10.050;2023-09-12T00:26:29;100636.19;;;26.15;51.41
76973;BME280;65907;53.640;10.050;2023-09-12T00:28:55;100642.44;;;26.14;51.59
76973;BME280;65907;53.640;10.050;2023-09-12T00:31:21;100621.22;;;26.15;51.24
76973;BME280;65907;53.640;10.050;2023-09-12T00:33:46;100619.56;;;26.14;51.36
76973;BME280;65907;53.640;10.050;2023-09-12T00:36:11;100615.28;;;26.13;51.28
76973;BME280;65907;53.640;10.050;2023-09-12T00:38:36;100614.28;;;26.14;51.62
76973;BME280;65907;53.640;10.050;2023-09-12T00:41:02;100615.28;;;26.13;51.40
76973;BME280;65907;53.640;10.050;2023-09-12T00:43:28;100613.47;;;26.14;51.60
76973;BME280;65907;53.640;10.050;2023-09-12T00:45:53;100608.19;;;26.14;51.63
76973;BME280;65907;53.640;10.050;2023-09-12T00:48:19;100601.94;;;26.15;51.64
76973;BME280;65907;53.640;10.050;2023-09-12T00:50:45;100597.50;;;26.15;51.39
76973;BME280;65907;53.640;10.050;2023-09-12T00:53:11;100595.84;;;26.14;51.58
76973;BME280;65907;53.640;10.050;2023-09-12T00:55:37;100596.00;;;26.13;51.71
76973;BME280;65907;53.640;10.050;2023-09-12T00:58:05;100595.00;;;26.14;51.65
76973;BME280;65907;53.640;10.050;2023-09-12T01:00:32;100595.84;;;26.14;51.59
76973;BME280;65907;53.640;10.050;2023-09-12T01:02:57;100585.63;;;26.11;51.79
76973;BME280;65907;53.640;10.050;2023-09-12T01:05:23;100583.81;;;26.12;51.48
76973;BME280;65907;53.640;10.050;2023-09-12T01:07:48;100582.00;;;26.12;51.60
76973;BME280;65907;53.640;10.050;2023-09-12T01:10:13;100584.66;;;26.12;51.66
76973;BME280;65907;53.640;10.050;2023-09-12T01:12:39;100591.72;;;26.12;51.66
76973;BME280;65907;53.640;10.050;2023-09-12T01:15:04;100585.63;;;26.11;51.70
76973;BME280;65907;53.640;10.050;2023-09-12T01:17:33;100583.34;;;26.08;51.54
76973;BME280;65907;53.640;10.050;2023-09-12T01:19:58;100586.44;;;26.12;51.69
76973;BME280;65907;53.640;10.050;2023-09-12T01:27:41;100585.63;;;26.11;51.55
76973;BME280;65907;53.640;10.050;2023-09-12T01:30:12;100598.16;;;26.09;51.69
76973;BME280;65907;53.640;10.050;2023-09-12T01:32:37;100601.59;;;26.10;51.78
76973;BME280;65907;53.640;10.050;2023-09-12T01:35:04;100604.09;;;26.11;51.61
76973;BME280;65907;53.640;10.050;2023-09-12T01:37:30;100599.81;;;26.10;51.82
76973;BME280;65907;53.640;10.050;2023-09-12T01:39:55;100597.97;;;26.11;51.72
76973;BME280;65907;53.640;10.050;2023-09-12T01:42:20;100609.19;;;26.13;51.59
76973;BME280;65907;53.640;10.050;2023-09-12T01:44:56;100613.63;;;26.12;51.63
76973;BME280;65907;53.640;10.050;2023-09-12T01:47:22;100614.28;;;26.14;51.43
76973;BME280;65907;53.640;10.050;2023-09-12T01:49:48;100608.53;;;26.11;51.71
76973;BME280;65907;53.640;10.050;2023-09-12T01:52:14;100614.63;;;26.11;51.76
76973;BME280;65907;53.640;10.050;2023-09-12T01:54:40;100612.97;;;26.10;51.58
76973;BME280;65907;53.640;10.050;2023-09-12T01:57:06;100603.25;;;26.11;51.71
76973;BME280;65907;53.640;10.050;2023-09-12T01:59:33;100604.44;;;26.08;51.83
76973;BME280;65907;53.640;10.050;2023-09-12T02:02:00;100608.06;;;26.07;51.77
76973;BME280;65907;53.640;10.050;2023-09-12T02:04:29;100612.00;;;26.11;51.65
76973;BME280;65907;53.640;10.050;2023-09-12T02:06:54;100614.13;;;26.08;51.67
76973;BME280;65907;53.640;10.050;2023-09-12T02:14:29;100635.84;;;26.10;51.66
76973;BME280;65907;53.640;10.050;2023-09-12T02:16:54;100637.03;;;26.07;51.71
76973;BME280;65907;53.640;10.050;2023-09-12T02:19:20;100643.63;;;26.11;51.78
76973;BME280;65907;53.640;10.050;2023-09-12T02:21:45;100641.13;;;26.10;51.82
76973;BME280;65907;53.640;10.050;2023-09-12T02:24:10;100639.66;;;26.07;51.72
76973;BME280;65907;53.640;10.050;2023-09-12T02:26:35;100649.22;;;26.08;51.65
76973;BME280;65907;53.640;10.050;2023-09-12T02:29:01;100654.50;;;26.08;51.79
76973;BME280;65907;53.640;10.050;2023-09-12T02:31:27;100676.38;;;26.09;51.56
76973;BME280;65907;53.640;10.050;2023-09-12T02:33:52;100684.28;;;26.09;51.73
76973;BME280;65907;53.640;10.050;2023-09-12T02:36:19;100685.94;;;26.10;51.76
76973;BME280;65907;53.640;10.050;2023-09-12T02:38:44;100678.84;;;26.10;51.75
76973;BME280;65907;53.640;10.050;2023-09-12T02:41:09;100684.78;;;26.12;51.48
76973;BME280;65907;53.640;10.050;2023-09-12T02:43:34;100692.19;;;26.09;51.74
76973;BME280;65907;53.640;10.050;2023-09-12T02:46:00;100678.19;;;26.08;51.81
76973;BME280;65907;53.640;10.050;2023-09-12T02:48:25;100683.28;;;26.10;51.78
76973;BME280;65907;53.640;10.050;2023-09-12T02:50:50;100678.19;;;26.08;51.78
76973;BME280;65907;53.640;10.050;2023-09-12T02:53:15;100674.88;;;26.06;51.90
76973;BME280;65907;53.640;10.050;2023-09-12T02:55:41;100671.28;;;26.07;51.80
76973;BME280;65907;53.640;10.050;2023-09-12T02:58:06;100670.94;;;26.10;51.88
76973;BME280;65907;53.640;10.050;2023-09-12T03:00:32;100672.25;;;26.06;51.90
76973;BME280;65907;53.640;10.050;2023-09-12T03:02:58;100670.13;;;26.10;51.84
76973;BME280;65907;53.640;10.050;2023-09-12T03:05:23;100653.50;;;26.09;51.75
76973;BME280;65907;53.640;10.050;2023-09-12T03:07:49;100632.41;;;26.09;51.92
76973;BME280;65907;53.640;10.050;2023-09-12T03:10:14;100629.28;;;26.05;51.65
76973;BME280;65907;53.640;10.050;2023-09-12T03:12:39;100627.16;;;26.09;51.78
76973;BME280;65907;53.640;10.050;2023-09-12T03:15:05;100631.75;;;26.07;51.93
76973;BME280;65907;53.640;10.050;2023-09-12T03:17:30;100640.47;;;26.08;51.73
76973;BME280;65907;53.640;10.050;2023-09-12T03:19:55;100642.44;;;26.05;51.78
76973;BME280;65907;53.640;10.050;2023-09-12T03:22:20;100649.22;;;26.08;51.91
76973;BME280;65907;53.640;10.050;2023-09-12T03:24:45;100655.47;;;26.07;51.91
76973;BME280;65907;53.640;10.050;2023-09-12T03:27:11;100656.44;;;26.06;51.87
76973;BME280;65907;53.640;10.050;2023-09-12T03:29:36;100662.38;;;26.08;51.86
76973;BME280;65907;53.640;10.050;2023-09-12T03:32:01;100662.38;;;26.08;51.97
76973;BME280;65907;53.640;10.050;2023-09-12T03:34:29;100676.72;;;26.05;52.07
76973;BME280;65907;53.640;10.050;2023-09-12T03:36:54;100700.41;;;26.05;51.90
76973;BME280;65907;53.640;10.050;2023-09-12T03:39:20;100737.16;;;26.07;51.85
76973;BME280;65907;53.640;10.050;2023-09-12T03:41:45;100746.72;;;26.08;51.85
76973;BME280;65907;53.640;10.050;2023-09-12T03:44:10;100743.22;;;26.08;51.98
76973;BME280;65907;53.640;10.050;2023-09-12T03:46:35;100736.16;;;26.08;51.92
76973;BME280;65907;53.640;10.050;2023-09-12T03:49:01;100714.25;;;26.08;51.95
76973;BME280;65907;53.640;10.050;2023-09-12T03:51:26;100728.25;;;26.08;51.94
76973;BME280;65907;53.640;10.050;2023-09-12T03:53:51;100727.56;;;26.06;51.70
76973;BME280;65907;53.640;10.050;2023-09-12T03:56:16;100721.34;;;26.07;51.85
76973;BME280;65907;53.640;10.050;2023-09-12T03:58:44;100715.09;;;26.08;51.94
76973;BME280;65907;53.640;10.050;2023-09-12T04:01:10;100745.88;;;26.08;51.95
76973;BME280;65907;53.640;10.050;2023-09-12T04:03:35;100740.44;;;26.09;51.80
76973;BME280;65907;53.640;10.050;2023-09-12T04:06:00;100730.06;;;26.08;51.98
76973;BME280;65907;53.640;10.050;2023-09-12T04:08:25;100719.00;;;26.04;52.00
76973;BME280;65907;53.640;10.050;2023-09-12T04:10:51;100702.72;;;26.09;52.03
76973;BME280;65907;53.640;10.050;2023-09-12T04:13:16;100674.88;;;26.06;52.08
76973;BME280;65907;53.640;10.050;2023-09-12T04:15:44;100656.63;;;26.04;52.03
76973;BME280;65907;53.640;10.050;2023-09-12T04:18:09;100652.00;;;26.06;51.95
76973;BME280;65907;53.640;10.050;2023-09-12T04:20:34;100665.19;;;26.06;51.80
76973;BME280;65907;53.640;10.050;2023-09-12T04:23:03;100666.31;;;26.04;52.06
76973;BME280;65907;53.640;10.050;2023-09-12T04:25:29;100663.53;;;26.05;51.90
76973;BME280;65907;53.640;10.050;2023-09-12T04:27:54;100645.91;;;26.06;52.05
76973;BME280;65907;53.640;10.050;2023-09-12T04:30:19;100641.47;;;26.06;51.98
76973;BME280;65907;53.640;10.050;2023-09-12T04:32:45;100643.75;;;26.10;51.89
76973;BME280;65907;53.640;10.050;2023-09-12T04:35:10;100637.69;;;26.09;51.88
76973;BME280;65907;53.640;10.050;2023-09-12T04:37:35;100628.13;;;26.08;52.10
76973;BME280;65907;53.640;10.050;2023-09-12T04:40:00;100630.09;;;26.06;51.63
76973;BME280;65907;53.640;10.050;2023-09-12T04:42:26;100621.88;;;26.09;51.79
76973;BME280;65907;53.640;10.050;2023-09-12T04:44:51;100634.88;;;26.11;51.91
76973;BME280;65907;53.640;10.050;2023-09-12T04:47:16;100631.06;;;26.05;51.88
76973;BME280;65907;53.640;10.050;2023-09-12T04:49:43;100640.63;;;26.06;52.14
76973;BME280;65907;53.640;10.050;2023-09-12T04:52:09;100632.72;;;26.06;51.85
76973;BME280;65907;53.640;10.050;2023-09-12T04:54:34;100629.94;;;26.08;52.00
76973;BME280;65907;53.640;10.050;2023-09-12T04:56:59;100628.94;;;26.09;51.96
76973;BME280;65907;53.640;10.050;2023-09-12T04:59:24;100613.13;;;26.09;51.86
76973;BME280;65907;53.640;10.050;2023-09-12T05:01:50;100618.75;;;26.05;51.93
76973;BME280;65907;53.640;10.050;2023-09-12T05:04:16;100625.50;;;26.08;51.91
76973;BME280;65907;53.640;10.050;2023-09-12T05:06:41;100637.34;;;26.04;51.94
76973;BME280;65907;53.640;10.050;2023-09-12T05:09:09;100645.75;;;26.08;51.88
76973;BME280;65907;53.640;10.050;2023-09-12T05:11:36;100654.31;;;26.10;52.16
76973;BME280;65907;53.640;10.050;2023-09-12T05:14:01;100663.38;;;26.15;51.89
76973;BME280;65907;53.640;10.050;2023-09-12T05:16:38;100677.25;;;26.17;51.67
76973;BME280;65907;53.640;10.050;2023-09-12T05:19:04;100689.72;;;26.15;51.80
76973;BME280;65907;53.640;10.050;2023-09-12T05:21:29;100697.47;;;26.17;51.79
76973;BME280;65907;53.640;10.050;2023-09-12T05:23:55;100710.97;;;26.14;51.93
76973;BME280;65907;53.640;10.050;2023-09-12T05:26:20;100709.97;;;26.15;51.99
76973;BME280;65907;53.640;10.050;2023-09-12T05:28:45;100716.75;;;26.09;52.09
76973;BME280;65907;53.640;10.050;2023-09-12T05:31:10;100710.63;;;26.09;51.94
76973;BME280;65907;53.640;10.050;2023-09-12T05:33:36;100720.19;;;26.10;51.94
76973;BME280;65907;53.640;10.050;2023-09-12T05:36:01;100725.63;;;26.08;51.84
76973;BME280;65907;53.640;10.050;2023-09-12T05:38:27;100725.63;;;26.08;51.79
76973;BME280;65907;53.640;10.050;2023-09-12T05:40:54;100744.06;;;26.08;51.72
76973;BME280;65907;53.640;10.050;2023-09-12T05:43:20;100746.72;;;26.08;51.75
76973;BME280;65907;53.640;10.050;2023-09-12T05:45:45;100745.72;;;26.09;51.82
76973;BME280;65907;53.640;10.050;2023-09-12T05:48:11;100746.38;;;26.11;51.78
76973;BME280;65907;53.640;10.050;2023-09-12T05:50:36;100756.91;;;26.11;51.63
76973;BME280;65907;53.640;10.050;2023-09-12T05:53:02;100735.47;;;26.06;51.96
76973;BME280;65907;53.640;10.050;2023-09-12T05:55:27;100756.75;;;26.04;51.97
76973;BME280;65907;53.640;10.050;2023-09-12T05:57:52;100765.63;;;26.03;51.99
76973;BME280;65907;53.640;10.050;2023-09-12T06:00:18;100758.72;;;26.02;51.89
76973;BME280;65907;53.640;10.050;2023-09-12T06:02:44;100787.84;;;26.01;52.00
76973;BME280;65907;53.640;10.050;2023-09-12T06:05:09;100756.88;;;26.03;51.78
76973;BME280;65907;53.640;10.050;2023-09-12T06:07:34;100735.97;;;26.01;51.93
76973;BME280;65907;53.640;10.050;2023-09-12T06:10:00;100727.91;;;26.03;51.94
76973;BME280;65907;53.640;10.050;2023-09-12T06:12:25;100721.50;;;26.05;51.88
76973;BME280;65907;53.640;10.050;2023-09-12T06:14:51;100737.44;;;26.04;51.80
76973;BME280;65907;53.640;10.050;2023-09-12T06:17:18;100724.59;;;26.01;51.98
76973;BME280;65907;53.640;10.050;2023-09-12T06:19:43;100721.81;;;26.02;52.03
76973;BME280;65907;53.640;10.050;2023-09-12T06:22:08;100725.28;;;26.03;51.78
76973;BME280;65907;53.640;10.050;2023-09-12T06:24:34;100715.72;;;26.02;51.74
76973;BME280;65907;53.640;10.050;2023-09-12T06:26:59;100692.84;;;26.02;51.87
76973;BME280;65907;53.640;10.050;2023-09-12T06:29:24;100692.19;;;26.00;51.81
76973;BME280;65907;53.640;10.050;2023-09-12T06:31:49;100691.03;;;26.03;51.76
76973;BME280;65907;53.640;10.050;2023-09-12T06:34:15;100688.38;;;26.03;51.84
76973;BME280;65907;53.640;10.050;2023-09-12T06:36:40;100686.59;;;26.03;51.86
76973;BME280;65907;53.640;10.050;2023-09-12T06:39:09;100680.66;;;26.01;51.61
76973;BME280;65907;53.640;10.050;2023-09-12T06:41:35;100686.75;;;26.02;51.76
76973;BME280;65907;53.640;10.050;2023-09-12T06:44:00;100689.38;;;26.02;51.57
76973;BME280;65907;53.640;10.050;2023-09-12T06:46:26;100686.06;;;26.00;51.75
76973;BME280;65907;53.640;10.050;2023-09-12T06:48:51;100690.34;;;26.01;51.87
76973;BME280;65907;53.640;10.050;2023-09-12T06:51:16;100675.22;;;26.03;51.69
76973;BME280;65907;53.640;10.050;2023-09-12T06:53:45;100655.13;;;26.02;51.63
76973;BME280;65907;53.640;10.050;2023-09-12T06:56:10;100627.63;;;26.04;51.59
76973;BME280;65907;53.640;10.050;2023-09-12T06:58:35;100618.88;;;26.04;51.77
76973;BME280;65907;53.640;10.050;2023-09-12T07:01:05;100629.75;;;26.01;51.67
76973;BME280;65907;53.640;10.050;2023-09-12T07:03:31;100621.72;;;26.02;51.63
76973;BME280;65907;53.640;10.050;2023-09-12T07:06:00;100616.44;;;26.02;51.66
76973;BME280;65907;53.640;10.050;2023-09-12T07:08:29;100618.09;;;26.03;51.72
76973;BME280;65907;53.640;10.050;2023-09-12T07:10:54;100620.88;;;26.02;51.67
76973;BME280;65907;53.640;10.050;2023-09-12T07:13:24;100613.63;;;26.04;51.57
76973;BME280;65907;53.640;10.050;2023-09-12T07:15:50;100607.34;;;26.05;51.79
76973;BME280;65907;53.640;10.050;2023-09-12T07:18:15;100600.44;;;26.04;51.60
76973;BME280;65907;53.640;10.050;2023-09-12T07:20:40;100589.25;;;26.02;51.59
76973;BME280;65907;53.640;10.050;2023-09-12T07:23:05;100590.91;;;26.03;51.63
76973;BME280;65907;53.640;10.050;2023-09-12T07:25:35;100579.69;;;26.01;51.55
76973;BME280;65907;53.640;10.050;2023-09-12T07:28:00;100581.34;;;26.02;51.64
76973;BME280;65907;53.640;10.050;2023-09-12T07:30:25;100589.25;;;26.02;51.59
76973;BME280;65907;53.640;10.050;2023-09-12T07:32:50;100594.19;;;26.05;51.50
76973;BME280;65907;53.640;10.050;2023-09-12T07:35:17;100617.75;;;26.06;51.55
76973;BME280;65907;53.640;10.050;2023-09-12T07:37:42;100637.69;;;26.09;51.49
76973;BME280;65907;53.640;10.050;2023-09-12T07:40:08;100636.50;;;26.12;51.29
76973;BME280;65907;53.640;10.050;2023-09-12T07:42:35;100650.53;;;26.12;51.46
76973;BME280;65907;53.640;10.050;2023-09-12T07:45:00;100655.94;;;26.11;51.35
76973;BME280;65907;53.640;10.050;2023-09-12T07:47:25;100647.06;;;26.12;51.41
76973;BME280;65907;53.640;10.050;2023-09-12T07:49:54;100636.84;;;26.09;51.68
76973;BME280;65907;53.640;10.050;2023-09-12T07:52:19;100625.16;;;26.11;51.78
76973;BME280;65907;53.640;10.050;2023-09-12T07:54:44;100639.47;;;26.09;52.19
76973;BME280;65907;53.640;10.050;2023-09-12T07:57:09;100635.72;;;26.11;52.06
76973;BME280;65907;53.640;10.050;2023-09-12T07:59:35;100644.28;;;26.13;51.74
76973;BME280;65907;53.640;10.050;2023-09-12T08:02:00;100653.63;;;26.16;51.55
76973;BME280;65907;53.640;10.050;2023-09-12T08:04:29;100689.88;;;26.14;51.76
76973;BME280;65907;53.640;10.050;2023-09-12T08:06:54;100708.88;;;26.17;51.60
76973;BME280;65907;53.640;10.050;2023-09-12T08:09:23;100728.41;;;26.15;51.74
76973;BME280;65907;53.640;10.050;2023-09-12T08:11:49;100746.19;;;26.13;51.66
76973;BME280;65907;53.640;10.050;2023-09-12T08:14:21;100766.28;;;26.14;51.74
76973;BME280;65907;53.640;10.050;2023-09-12T08:16:49;100768.13;;;26.13;51.93
76973;BME280;65907;53.640;10.050;2023-09-12T08:19:15;100788.22;;;26.14;51.60
76973;BME280;65907;53.640;10.050;2023-09-12T08:21:40;100774.38;;;26.12;51.63
76973;BME280;65907;53.640;10.050;2023-09-12T08:24:05;100776.03;;;26.13;51.60
76973;BME280;65907;53.640;10.050;2023-09-12T08:26:31;100791.84;;;26.13;51.70
76973;BME280;65907;53.640;10.050;2023-09-12T08:28:56;100803.19;;;26.14;51.68
76973;BME280;65907;53.640;10.050;2023-09-12T08:31:22;100804.03;;;26.14;51.65
76973;BME280;65907;53.640;10.050;2023-09-12T08:33:47;100797.25;;;26.12;51.70
76973;BME280;65907;53.640;10.050;2023-09-12T08:36:12;100810.94;;;26.15;51.62
76973;BME280;65907;53.640;10.050;2023-09-12T08:38:37;100805.81;;;26.14;51.68
76973;BME280;65907;53.640;10.050;2023-09-12T08:41:05;100801.53;;;26.13;51.78
76973;BME280;65907;53.640;10.050;2023-09-12T08:43:33;100797.13;;;26.13;51.62
76973;BME280;65907;53.640;10.050;2023-09-12T08:46:01;100813.25;;;26.10;51.75
76973;BME280;65907;53.640;10.050;2023-09-12T08:48:26;100809.44;;;26.13;51.64
76973;BME280;65907;53.640;10.050;2023-09-12T08:51:01;100807.66;;;26.13;51.64
76973;BME280;65907;53.640;10.050;2023-09-12T08:53:28;100806.16;;;26.11;51.52
76973;BME280;65907;53.640;10.050;2023-09-12T08:55:53;100801.88;;;26.10;51.67
76973;BME280;65907;53.640;10.050;2023-09-12T08:58:19;100805.34;;;26.10;51.58
76973;BME280;65907;53.640;10.050;2023-09-12T09:00:45;100823.78;;;26.10;51.56
76973;BME280;65907;53.640;10.050;2023-09-12T09:03:11;100834.16;;;26.12;51.65
76973;BME280;65907;53.640;10.050;2023-09-12T09:05:37;100831.84;;;26.09;51.77
76973;BME280;65907;53.640;10.050;2023-09-12T09:08:04;100849.81;;;26.13;51.40
76973;BME280;65907;53.640;10.050;2023-09-12T09:10:30;100851.94;;;26.10;51.71
76973;BME280;65907;53.640;10.050;2023-09-12T09:12:57;100854.56;;;26.10;51.64
76973;BME280;65907;53.640;10.050;2023-09-12T09:15:24;100871.22;;;26.10;51.62
76973;BME280;65907;53.640;10.050;2023-09-12T09:17:51;100862.47;;;26.10;51.71
76973;BME280;65907;53.640;10.050;2023-09-12T09:20:32;100834.31;;;26.10;51.64
76973;BME280;65907;53.640;10.050;2023-09-12T09:23:02;100843.38;;;26.08;51.62
76973;BME280;65907;53.640;10.050;2023-09-12T09:25:31;100893.94;;;26.11;51.44
76973;BME280;65907;53.640;10.050;2023-09-12T09:27:57;100917.28;;;26.06;51.70
76973;BME280;65907;53.640;10.050;2023-09-12T09:31:04;100883.03;;;26.06;51.69
76973;BME280;65907;53.640;10.050;2023-09-12T09:33:11;100858.38;;;26.07;51.74
76973;BME280;65907;53.640;10.050;2023-09-12T09:35:37;100882.09;;;26.07;51.64
76973;BME280;65907;53.640;10.050;2023-09-12T09:38:05;100866.56;;;26.04;51.54
76973;BME280;65907;53.640;10.050;2023-09-12T09:40:31;100823.28;;;26.06;51.55
76973;BME280;65907;53.640;10.050;2023-09-12T09:42:58;100817.53;;;26.11;51.56
76973;BME280;65907;53.640;10.050;2023-09-12T09:45:24;100849.44;;;26.00;51.64
76973;BME280;65907;53.640;10.050;2023-09-12T09:47:49;100837.78;;;26.11;51.47
76973;BME280;65907;53.640;10.050;2023-09-12T09:50:15;100825.59;;;26.10;51.68
76973;BME280;65907;53.640;10.050;2023-09-12T09:52:42;100856.41;;;26.09;51.63
76973;BME280;65907;53.640;10.050;2023-09-12T09:55:13;100866.09;;;26.09;51.56
76973;BME280;65907;53.640;10.050;2023-09-12T09:57:52;100842.03;;;26.03;51.66
76973;BME280;65907;53.640;10.050;2023-09-12T10:00:19;100821.63;;;26.05;51.63
76973;BME280;65907;53.640;10.050;2023-09-12T10:02:44;100817.16;;;26.06;51.64
76973;BME280;65907;53.640;10.050;2023-09-12T10:05:13;100820.13;;;26.03;51.71
76973;BME280;65907;53.640;10.050;2023-09-12T10:12:50;100825.38;;;26.03;51.66
76973;BME280;65907;53.640;10.050;2023-09-12T10:15:19;100834.28;;;26.02;51.82
76973;BME280;65907;53.640;10.050;2023-09-12T10:17:46;100811.22;;;26.04;51.42
76973;BME280;65907;53.640;10.050;2023-09-12T10:20:14;100814.84;;;26.03;51.80
76973;BME280;65907;53.640;10.050;2023-09-12T10:25:50;100819.66;;;26.08;51.56
76973;BME280;65907;53.640;10.050;2023-09-12T10:28:16;100823.13;;;26.08;51.50
76973;BME280;65907;53.640;10.050;2023-09-12T10:30:51;100797.75;;;26.07;51.52
76973;BME280;65907;53.640;10.050;2023-09-12T10:33:17;100786.22;;;26.08;51.51
76973;BME280;65907;53.640;10.050;2023-09-12T10:35:43;100783.75;;;26.06;51.66
76973;BME280;65907;53.640;10.050;2023-09-12T10:38:09;100774.34;;;26.04;51.59
76973;BME280;65907;53.640;10.050;2023-09-12T10:40:39;100776.81;;;26.05;51.61
76973;BME280;65907;53.640;10.050;2023-09-12T10:43:05;100789.34;;;26.03;51.64
76973;BME280;65907;53.640;10.050;2023-09-12T10:45:31;100815.84;;;26.02;51.66
76973;BME280;65907;53.640;10.050;2023-09-12T10:47:58;100799.69;;;26.05;51.65
76973;BME280;65907;53.640;10.050;2023-09-12T10:50:23;100781.13;;;26.06;51.67
76973;BME280;65907;53.640;10.050;2023-09-12T10:52:48;100790.16;;;26.04;51.58
76973;BME280;65907;53.640;10.050;2023-09-12T10:55:17;100803.03;;;26.07;51.57
76973;BME280;65907;53.640;10.050;2023-09-12T10:58:04;100804.81;;;26.06;51.50
76973;BME280;65907;53.640;10.050;2023-09-12T11:00:29;100785.25;;;26.09;51.43
76973;BME280;65907;53.640;10.050;2023-09-12T11:02:57;100767.78;;;26.08;51.45
76973;BME280;65907;53.640;10.050;2023-09-12T11:06:08;100785.25;;;26.09;51.56
76973;BME280;65907;53.640;10.050;2023-09-12T11:08:08;100800.88;;;26.11;51.42
76973;BME280;65907;53.640;10.050;2023-09-12T11:10:34;100828.22;;;26.10;51.72
76973;BME280;65907;53.640;10.050;2023-09-12T11:12:59;100853.59;;;26.11;51.61
76973;BME280;65907;53.640;10.050;2023-09-12T11:15:26;100843.88;;;26.11;51.54
76973;BME280;65907;53.640;10.050;2023-09-12T11:18:01;100832.00;;;26.07;51.56
76973;BME280;65907;53.640;10.050;2023-09-12T11:23:12;100835.59;;;26.06;51.62
76973;BME280;65907;53.640;10.050;2023-09-12T11:25:38;100833.28;;;26.03;51.65
76973;BME280;65907;53.640;10.050;2023-09-12T11:28:03;100871.69;;;26.05;51.68
76973;BME280;65907;53.640;10.050;2023-09-12T11:30:29;100872.34;;;26.08;51.63
76973;BME280;65907;53.640;10.050;2023-09-12T11:32:59;100847.13;;;26.05;51.75
76973;BME280;65907;53.640;10.050;2023-09-12T11:35:35;100856.19;;;26.02;51.88
76973;BME280;65907;53.640;10.050;2023-09-12T11:38:01;100850.09;;;26.02;52.00
76973;BME280;65907;53.640;10.050;2023-09-12T11:43:22;100844.47;;;25.97;51.69
76973;BME280;65907;53.640;10.050;2023-09-12T11:45:49;100868.84;;;25.99;51.73
76973;BME280;65907;53.640;10.050;2023-09-12T11:50:51;100861.94;;;25.98;51.67
76973;BME280;65907;53.640;10.050;2023-09-12T11:53:18;100834.13;;;25.95;52.22
76973;BME280;65907;53.640;10.050;2023-09-12T11:55:45;100818.72;;;25.82;52.75
76973;BME280;65907;53.640;10.050;2023-09-12T12:03:22;100743.56;;;25.96;52.13
76973;BME280;65907;53.640;10.050;2023-09-12T12:05:47;100722.97;;;25.91;52.11
76973;BME280;65907;53.640;10.050;2023-09-12T12:08:14;100771.38;;;25.99;51.83
76973;BME280;65907;53.640;10.050;2023-09-12T12:10:39;100754.19;;;25.78;52.54
76973;BME280;65907;53.640;10.050;2023-09-12T12:13:06;100743.75;;;25.52;53.35
76973;BME280;65907;53.640;10.050;2023-09-12T12:15:33;100735.31;;;25.48;54.36
76973;BME280;65907;53.640;10.050;2023-09-12T12:17:58;100735.31;;;25.48;55.75
76973;BME280;65907;53.640;10.050;2023-09-12T12:20:23;100738.75;;;25.48;55.87
76973;BME280;65907;53.640;10.050;2023-09-12T12:22:49;100738.50;;;25.60;56.10
76973;BME280;65907;53.640;10.050;2023-09-12T12:25:17;100739.19;;;25.70;56.51
76973;BME280;65907;53.640;10.050;2023-09-12T12:27:43;100726.19;;;25.69;57.21
76973;BME280;65907;53.640;10.050;2023-09-12T12:30:09;100723.09;;;25.73;57.45
76973;BME280;65907;53.640;10.050;2023-09-12T12:35:07;100712.94;;;26.12;55.27
76973;BME280;65907;53.640;10.050;2023-09-12T12:37:36;100715.63;;;26.28;54.21
76973;BME280;65907;53.640;10.050;2023-09-12T12:40:02;100713.31;;;26.33;53.80
76973;BME280;65907;53.640;10.050;2023-09-12T12:42:35;100708.88;;;26.17;54.98
76973;BME280;65907;53.640;10.050;2023-09-12T12:45:09;100715.13;;;26.33;53.54
76973;BME280;65907;53.640;10.050;2023-09-12T12:47:39;100714.63;;;26.38;53.32
76973;BME280;65907;53.640;10.050;2023-09-12T13:00:24;100711.00;;;26.30;53.42
76973;BME280;65907;53.640;10.050;2023-09-12T13:02:52;100711.16;;;26.29;53.98
76973;BME280;65907;53.640;10.050;2023-09-12T13:05:25;100697.66;;;26.40;53.98
76973;BME280;65907;53.640;10.050;2023-09-12T13:07:50;100707.03;;;26.18;54.52
76973;BME280;65907;53.640;10.050;2023-09-12T13:10:16;100707.66;;;26.12;54.60
76973;BME280;65907;53.640;10.050;2023-09-12T13:12:41;100703.06;;;26.05;54.85
76973;BME280;65907;53.640;10.050;2023-09-12T13:15:10;100702.06;;;26.06;54.72
76973;BME280;65907;53.640;10.050;2023-09-12T13:17:35;100690.69;;;26.06;54.82
76973;BME280;65907;53.640;10.050;2023-09-12T13:20:01;100688.41;;;26.11;54.63
76973;BME280;65907;53.640;10.050;2023-09-12T13:22:26;100688.75;;;26.08;54.68
76973;BME280;65907;53.640;10.050;2023-09-12T13:24:51;100681.13;;;26.05;54.59
76973;BME280;65907;53.640;10.050;2023-09-12T13:27:16;100681.50;;;26.10;54.58
76973;BME280;65907;53.640;10.050;2023-09-12T13:32:17;100681.50;;;26.10;54.61
76973;BME280;65907;53.640;10.050;2023-09-12T13:34:43;100686.91;;;26.09;54.54
76973;BME280;65907;53.640;10.050;2023-09-12T13:37:08;100688.06;;;26.14;54.62
76973;BME280;65907;53.640;10.050;2023-09-12T13:39:34;100681.19;;;26.22;53.82
76973;BME280;65907;53.640;10.050;2023-09-12T13:41:59;100682.84;;;26.23;53.81